sensor_id;sensor_type;location;lat;lon;timestamp;temperature;humidity
54409;DHT22;40315;48.620;9.828;2024-03-25T00:01:55;4.90;99.90
54409;DHT22;40315;48.620;9.828;2024-03-25T00:06:49;6.60;99.90
54409;DHT22;40315;48.620;9.828;2024-03-25T00:09:15;5.00;99.90
54409;DHT22;40315;48.620;9.828;2024-03-25T00:11:44;5.00;99.90
54409;DHT22;40315;48.620;9.828;2024-03-25T00:16:38;4.90;99.90
54409;DHT22;40315;48.620;9.828;2024-03-25T00:19:05;4.90;99.90
54409;DHT22;40315;48.620;9.828;2024-03-25T00:21:32;5.00;99.90
54409;DHT22;40315;48.620;9.828;2024-03-25T00:23:58;5.00;99.90
54409;DHT22;40315;48.620;9.828;2024-03-25T00:26:26;5.10;99.90
54409;DHT22;40315;48.620;9.828;2024-03-25T00:28:52;4.90;99.90
54409;DHT22;40315;48.620;9.828;2024-03-25T00:33:47;4.90;99.90
54409;DHT22;40315;48.620;9.828;2024-03-25T00:36:14;4.90;99.90
54409;DHT22;40315;48.620;9.828;2024-03-25T00:38:40;4.90;99.90
54409;DHT22;40315;48.620;9.828;2024-03-25T00:41:07;4.90;99.90
54409;DHT22;40315;48.620;9.828;2024-03-25T00:50:56;4.90;99.90
54409;DHT22;40315;48.620;9.828;2024-03-25T01:03:25;5.00;99.90
54409;DHT22;40315;48.620;9.828;2024-03-25T01:05:53;4.90;99.90
54409;DHT22;40315;48.620;9.828;2024-03-25T01:08:19;4.90;99.90
54409;DHT22;40315;48.620;9.828;2024-03-25T01:10:46;4.90;99.90
54409;DHT22;40315;48.620;9.828;2024-03-25T01:13:14;4.90;99.90
54409;DHT22;40315;48.620;9.828;2024-03-25T01:15:44;4.80;99.90
54409;DHT22;40315;48.620;9.828;2024-03-25T01:18:10;4.80;99.90
54409;DHT22;40315;48.620;9.828;2024-03-25T01:20:37;4.80;99.90
54409;DHT22;40315;48.620;9.828;2024-03-25T01:23:04;4.70;99.90
54409;DHT22;40315;48.620;9.828;2024-03-25T01:25:31;4.70;99.90
54409;DHT22;40315;48.620;9.828;2024-03-25T01:27:58;4.80;99.90
54409;DHT22;40315;48.620;9.828;2024-03-25T01:30:24;4.80;99.90
54409;DHT22;40315;48.620;9.828;2024-03-25T01:32:50;4.80;99.90
54409;DHT22;40315;48.620;9.828;2024-03-25T01:35:17;4.80;99.90
54409;DHT22;40315;48.620;9.828;2024-03-25T01:37:43;4.80;99.90
54409;DHT22;40315;48.620;9.828;2024-03-25T01:40:12;4.70;99.90
54409;DHT22;40315;48.620;9.828;2024-03-25T01:42:38;4.80;99.90
54409;DHT22;40315;48.620;9.828;2024-03-25T01:45:09;4.80;99.90
54409;DHT22;40315;48.620;9.828;2024-03-25T01:47:36;4.80;99.90
54409;DHT22;40315;48.620;9.828;2024-03-25T01:50:06;4.80;99.90
54409;DHT22;40315;48.620;9.828;2024-03-25T01:52:32;4.90;99.90
54409;DHT22;40315;48.620;9.828;2024-03-25T01:55:00;4.80;99.90
54409;DHT22;40315;48.620;9.828;2024-03-25T01:57:30;4.90;99.90
54409;DHT22;40315;48.620;9.828;2024-03-25T01:59:57;4.90;99.90
54409;DHT22;40315;48.620;9.828;2024-03-25T02:02:24;4.80;99.90
54409;DHT22;40315;48.620;9.828;2024-03-25T02:04:51;4.80;99.90
54409;DHT22;40315;48.620;9.828;2024-03-25T02:07:18;4.80;99.90
54409;DHT22;40315;48.620;9.828;2024-03-25T02:09:45;4.80;99.90
54409;DHT22;40315;48.620;9.828;2024-03-25T02:12:12;4.70;99.90
54409;DHT22;40315;48.620;9.828;2024-03-25T02:14:41;4.70;99.90
54409;DHT22;40315;48.620;9.828;2024-03-25T02:17:09;4.80;99.90
54409;DHT22;40315;48.620;9.828;2024-03-25T02:19:39;4.60;99.90
54409;DHT22;40315;48.620;9.828;2024-03-25T02:22:07;4.60;99.90
54409;DHT22;40315;48.620;9.828;2024-03-25T02:24:34;4.60;99.90
54409;DHT22;40315;48.620;9.828;2024-03-25T02:27:02;4.60;99.90
54409;DHT22;40315;48.620;9.828;2024-03-25T02:29:33;4.60;99.90
54409;DHT22;40315;48.620;9.828;2024-03-25T02:31:59;4.50;99.90
54409;DHT22;40315;48.620;9.828;2024-03-25T02:34:26;4.50;99.90
54409;DHT22;40315;48.620;9.828;2024-03-25T02:36:52;4.50;99.90
54409;DHT22;40315;48.620;9.828;2024-03-25T02:39:20;4.50;99.90
54409;DHT22;40315;48.620;9.828;2024-03-25T02:41:46;4.50;99.90
54409;DHT22;40315;48.620;9.828;2024-03-25T02:44:14;4.80;99.90
54409;DHT22;40315;48.620;9.828;2024-03-25T02:46:41;4.60;99.90
54409;DHT22;40315;48.620;9.828;2024-03-25T02:49:10;4.60;99.90
54409;DHT22;40315;48.620;9.828;2024-03-25T02:51:36;4.60;99.90
54409;DHT22;40315;48.620;9.828;2024-03-25T02:54:03;4.60;99.90
54409;DHT22;40315;48.620;9.828;2024-03-25T02:56:30;4.60;99.90
54409;DHT22;40315;48.620;9.828;2024-03-25T02:58:56;4.70;99.90
54409;DHT22;40315;48.620;9.828;2024-03-25T03:01:24;4.60;99.90
54409;DHT22;40315;48.620;9.828;2024-03-25T03:03:50;4.60;99.90
54409;DHT22;40315;48.620;9.828;2024-03-25T03:06:18;4.70;99.90
54409;DHT22;40315;48.620;9.828;2024-03-25T03:08:44;4.70;99.90
54409;DHT22;40315;48.620;9.828;2024-03-25T03:11:11;4.70;99.90
54409;DHT22;40315;48.620;9.828;2024-03-25T03:13:37;4.80;99.90
54409;DHT22;40315;48.620;9.828;2024-03-25T03:16:05;4.70;99.90
54409;DHT22;40315;48.620;9.828;2024-03-25T03:18:32;4.70;99.90
54409;DHT22;40315;48.620;9.828;2024-03-25T03:20:59;4.80;99.90
54409;DHT22;40315;48.620;9.828;2024-03-25T03:23:25;4.80;99.90
54409;DHT22;40315;48.620;9.828;2024-03-25T03:25:52;4.70;99.90
54409;DHT22;40315;48.620;9.828;2024-03-25T03:28:18;4.70;99.90
54409;DHT22;40315;48.620;9.828;2024-03-25T03:30:45;4.80;99.90
54409;DHT22;40315;48.620;9.828;2024-03-25T03:35:40;4.80;99.90
54409;DHT22;40315;48.620;9.828;2024-03-25T03:38:06;4.80;99.90
54409;DHT22;40315;48.620;9.828;2024-03-25T03:40:33;4.80;99.90
54409;DHT22;40315;48.620;9.828;2024-03-25T03:42:59;4.80;99.90
54409;DHT22;40315;48.620;9.828;2024-03-25T03:45:25;4.80;99.90
54409;DHT22;40315;48.620;9.828;2024-03-25T03:47:54;4.80;99.90
54409;DHT22;40315;48.620;9.828;2024-03-25T03:50:21;4.80;99.90
54409;DHT22;40315;48.620;9.828;2024-03-25T03:52:48;4.80;99.90
54409;DHT22;40315;48.620;9.828;2024-03-25T03:55:17;4.80;99.90
54409;DHT22;40315;48.620;9.828;2024-03-25T03:57:45;4.70;99.90
54409;DHT22;40315;48.620;9.828;2024-03-25T04:00:13;4.70;99.90
54409;DHT22;40315;48.620;9.828;2024-03-25T04:02:39;4.70;99.90
54409;DHT22;40315;48.620;9.828;2024-03-25T04:05:07;4.70;99.90
54409;DHT22;40315;48.620;9.828;2024-03-25T04:07:33;4.70;99.90
54409;DHT22;40315;48.620;9.828;2024-03-25T04:10:01;4.70;99.90
54409;DHT22;40315;48.620;9.828;2024-03-25T04:12:29;4.60;99.90
54409;DHT22;40315;48.620;9.828;2024-03-25T04:14:56;4.60;99.90
54409;DHT22;40315;48.620;9.828;2024-03-25T04:17:22;4.60;99.90
54409;DHT22;40315;48.620;9.828;2024-03-25T04:19:49;4.60;99.90
54409;DHT22;40315;48.620;9.828;2024-03-25T04:22:15;4.60;99.90
54409;DHT22;40315;48.620;9.828;2024-03-25T04:24:43;4.50;99.90
54409;DHT22;40315;48.620;9.828;2024-03-25T04:27:12;4.50;99.90
54409;DHT22;40315;48.620;9.828;2024-03-25T04:29:39;4.50;99.90
54409;DHT22;40315;48.620;9.828;2024-03-25T04:32:05;4.50;99.90
54409;DHT22;40315;48.620;9.828;2024-03-25T04:34:35;4.40;99.90
54409;DHT22;40315;48.620;9.828;2024-03-25T04:37:01;4.30;99.90
54409;DHT22;40315;48.620;9.828;2024-03-25T04:39:27;4.30;99.90
54409;DHT22;40315;48.620;9.828;2024-03-25T04:41:53;4.30;99.90
54409;DHT22;40315;48.620;9.828;2024-03-25T04:44:23;4.30;99.90
54409;DHT22;40315;48.620;9.828;2024-03-25T04:46:49;6.00;99.90
54409;DHT22;40315;48.620;9.828;2024-03-25T04:49:15;4.20;99.90
54409;DHT22;40315;48.620;9.828;2024-03-25T04:51:41;4.20;99.90
54409;DHT22;40315;48.620;9.828;2024-03-25T04:54:07;4.20;99.90
54409;DHT22;40315;48.620;9.828;2024-03-25T04:56:33;4.20;99.90
54409;DHT22;40315;48.620;9.828;2024-03-25T04:59:02;4.10;99.90
54409;DHT22;40315;48.620;9.828;2024-03-25T05:01:29;4.00;99.90
54409;DHT22;40315;48.620;9.828;2024-03-25T05:03:55;4.00;99.90
54409;DHT22;40315;48.620;9.828;2024-03-25T05:06:21;4.00;99.90
54409;DHT22;40315;48.620;9.828;2024-03-25T05:08:49;4.00;99.90
54409;DHT22;40315;48.620;9.828;2024-03-25T05:11:18;4.10;99.90
54409;DHT22;40315;48.620;9.828;2024-03-25T05:13:44;3.90;99.90
54409;DHT22;40315;48.620;9.828;2024-03-25T05:16:10;3.90;99.90
54409;DHT22;40315;48.620;9.828;2024-03-25T05:18:37;4.00;99.90
54409;DHT22;40315;48.620;9.828;2024-03-25T05:21:03;4.00;99.90
54409;DHT22;40315;48.620;9.828;2024-03-25T05:23:30;4.00;99.90
54409;DHT22;40315;48.620;9.828;2024-03-25T05:25:56;3.90;99.90
54409;DHT22;40315;48.620;9.828;2024-03-25T05:28:24;4.00;99.90
54409;DHT22;40315;48.620;9.828;2024-03-25T05:30:50;4.10;99.90
54409;DHT22;40315;48.620;9.828;2024-03-25T05:33:16;4.40;99.90
54409;DHT22;40315;48.620;9.828;2024-03-25T05:35:44;4.20;99.90
54409;DHT22;40315;48.620;9.828;2024-03-25T05:38:10;4.20;99.90
54409;DHT22;40315;48.620;9.828;2024-03-25T05:40:37;4.20;99.90
54409;DHT22;40315;48.620;9.828;2024-03-25T05:43:05;4.30;99.90
54409;DHT22;40315;48.620;9.828;2024-03-25T05:45:31;4.10;99.90
54409;DHT22;40315;48.620;9.828;2024-03-25T05:47:58;4.10;99.90
54409;DHT22;40315;48.620;9.828;2024-03-25T05:50:24;4.10;99.90
54409;DHT22;40315;48.620;9.828;2024-03-25T05:52:53;4.20;99.90
54409;DHT22;40315;48.620;9.828;2024-03-25T05:55:19;4.20;99.90
54409;DHT22;40315;48.620;9.828;2024-03-25T05:57:47;4.20;99.90
54409;DHT22;40315;48.620;9.828;2024-03-25T06:00:13;4.30;99.90
54409;DHT22;40315;48.620;9.828;2024-03-25T06:02:40;4.20;99.90
54409;DHT22;40315;48.620;9.828;2024-03-25T06:05:06;4.30;99.90
54409;DHT22;40315;48.620;9.828;2024-03-25T06:07:32;4.30;99.90
54409;DHT22;40315;48.620;9.828;2024-03-25T06:09:59;4.30;99.90
54409;DHT22;40315;48.620;9.828;2024-03-25T06:12:28;4.40;99.90
54409;DHT22;40315;48.620;9.828;2024-03-25T06:14:54;4.50;99.90
54409;DHT22;40315;48.620;9.828;2024-03-25T06:17:22;4.50;99.90
54409;DHT22;40315;48.620;9.828;2024-03-25T06:19:48;4.50;99.90
54409;DHT22;40315;48.620;9.828;2024-03-25T06:22:14;4.40;99.90
54409;DHT22;40315;48.620;9.828;2024-03-25T06:24:40;4.50;99.90
54409;DHT22;40315;48.620;9.828;2024-03-25T06:27:07;4.40;99.90
54409;DHT22;40315;48.620;9.828;2024-03-25T06:29:33;4.40;99.90
54409;DHT22;40315;48.620;9.828;2024-03-25T06:31:59;4.40;99.90
54409;DHT22;40315;48.620;9.828;2024-03-25T06:34:44;4.50;99.90
54409;DHT22;40315;48.620;9.828;2024-03-25T06:37:10;4.50;99.90
54409;DHT22;40315;48.620;9.828;2024-03-25T06:39:38;4.70;99.90
54409;DHT22;40315;48.620;9.828;2024-03-25T06:42:09;4.70;99.90
54409;DHT22;40315;48.620;9.828;2024-03-25T06:44:35;4.70;99.90
54409;DHT22;40315;48.620;9.828;2024-03-25T06:47:01;4.70;99.90
54409;DHT22;40315;48.620;9.828;2024-03-25T06:49:30;4.90;99.90
54409;DHT22;40315;48.620;9.828;2024-03-25T06:51:58;4.90;99.90
54409;DHT22;40315;48.620;9.828;2024-03-25T06:54:24;4.90;99.90
54409;DHT22;40315;48.620;9.828;2024-03-25T06:56:50;4.70;99.90
54409;DHT22;40315;48.620;9.828;2024-03-25T06:59:24;4.90;99.90
54409;DHT22;40315;48.620;9.828;2024-03-25T07:01:52;4.90;99.90
54409;DHT22;40315;48.620;9.828;2024-03-25T07:04:18;4.90;99.90
54409;DHT22;40315;48.620;9.828;2024-03-25T07:06:44;4.90;99.90
54409;DHT22;40315;48.620;9.828;2024-03-25T07:11:39;4.90;99.90
54409;DHT22;40315;48.620;9.828;2024-03-25T07:14:07;5.00;99.90
54409;DHT22;40315;48.620;9.828;2024-03-25T07:16:39;5.10;99.90
54409;DHT22;40315;48.620;9.828;2024-03-25T07:19:07;5.30;99.90
54409;DHT22;40315;48.620;9.828;2024-03-25T07:24:03;5.40;99.90
54409;DHT22;40315;48.620;9.828;2024-03-25T07:26:29;5.60;99.90
54409;DHT22;40315;48.620;9.828;2024-03-25T07:28:58;5.60;99.90
54409;DHT22;40315;48.620;9.828;2024-03-25T07:31:24;5.80;99.90
54409;DHT22;40315;48.620;9.828;2024-03-25T07:33:52;5.60;99.90
54409;DHT22;40315;48.620;9.828;2024-03-25T07:36:19;5.50;99.90
54409;DHT22;40315;48.620;9.828;2024-03-25T07:38:45;5.30;99.90
54409;DHT22;40315;48.620;9.828;2024-03-25T07:41:13;5.30;99.90
54409;DHT22;40315;48.620;9.828;2024-03-25T07:43:44;5.30;99.90
54409;DHT22;40315;48.620;9.828;2024-03-25T07:46:10;5.20;99.90
54409;DHT22;40315;48.620;9.828;2024-03-25T07:48:36;5.20;99.90
54409;DHT22;40315;48.620;9.828;2024-03-25T07:51:04;5.30;99.90
54409;DHT22;40315;48.620;9.828;2024-03-25T07:53:30;5.40;99.90
54409;DHT22;40315;48.620;9.828;2024-03-25T07:55:56;5.40;99.90
54409;DHT22;40315;48.620;9.828;2024-03-25T07:58:23;5.60;99.90
54409;DHT22;40315;48.620;9.828;2024-03-25T08:00:49;5.90;99.90
54409;DHT22;40315;48.620;9.828;2024-03-25T08:03:18;6.00;99.90
54409;DHT22;40315;48.620;9.828;2024-03-25T08:05:44;6.30;99.90
54409;DHT22;40315;48.620;9.828;2024-03-25T08:08:12;6.50;99.90
54409;DHT22;40315;48.620;9.828;2024-03-25T08:10:38;6.70;99.90
54409;DHT22;40315;48.620;9.828;2024-03-25T08:13:04;6.80;99.90
54409;DHT22;40315;48.620;9.828;2024-03-25T08:15:30;7.00;99.90
54409;DHT22;40315;48.620;9.828;2024-03-25T08:17:59;6.80;99.90
54409;DHT22;40315;48.620;9.828;2024-03-25T08:20:27;6.80;99.90
54409;DHT22;40315;48.620;9.828;2024-03-25T08:22:58;6.70;99.90
54409;DHT22;40315;48.620;9.828;2024-03-25T08:25:25;6.60;99.90
54409;DHT22;40315;48.620;9.828;2024-03-25T08:27:56;6.40;99.90
54409;DHT22;40315;48.620;9.828;2024-03-25T08:30:23;6.50;99.90
54409;DHT22;40315;48.620;9.828;2024-03-25T08:35:18;6.50;99.90
54409;DHT22;40315;48.620;9.828;2024-03-25T08:37:46;6.50;99.90
54409;DHT22;40315;48.620;9.828;2024-03-25T08:40:15;6.60;99.90
54409;DHT22;40315;48.620;9.828;2024-03-25T08:42:47;6.50;99.90
54409;DHT22;40315;48.620;9.828;2024-03-25T08:45:13;6.40;99.90
54409;DHT22;40315;48.620;9.828;2024-03-25T08:47:39;6.40;99.90
54409;DHT22;40315;48.620;9.828;2024-03-25T08:50:11;6.30;99.90
54409;DHT22;40315;48.620;9.828;2024-03-25T08:52:39;6.40;99.90
54409;DHT22;40315;48.620;9.828;2024-03-25T08:55:08;6.50;99.90
54409;DHT22;40315;48.620;9.828;2024-03-25T08:57:35;6.50;99.90
54409;DHT22;40315;48.620;9.828;2024-03-25T09:00:08;6.60;99.90
54409;DHT22;40315;48.620;9.828;2024-03-25T09:05:00;6.60;99.90
54409;DHT22;40315;48.620;9.828;2024-03-25T09:07:29;6.60;99.90
54409;DHT22;40315;48.620;9.828;2024-03-25T09:09:55;4.30;99.90
54409;DHT22;40315;48.620;9.828;2024-03-25T09:12:54;6.50;99.90
54409;DHT22;40315;48.620;9.828;2024-03-25T09:15:23;6.60;99.90
54409;DHT22;40315;48.620;9.828;2024-03-25T09:17:51;6.70;99.90
54409;DHT22;40315;48.620;9.828;2024-03-25T09:20:17;6.80;99.90
54409;DHT22;40315;48.620;9.828;2024-03-25T09:22:43;7.10;99.90
54409;DHT22;40315;48.620;9.828;2024-03-25T09:25:09;7.10;99.90
54409;DHT22;40315;48.620;9.828;2024-03-25T09:27:36;7.40;99.90
54409;DHT22;40315;48.620;9.828;2024-03-25T09:30:06;7.40;99.90
54409;DHT22;40315;48.620;9.828;2024-03-25T09:32:36;7.50;99.90
54409;DHT22;40315;48.620;9.828;2024-03-25T09:35:06;7.50;99.90
54409;DHT22;40315;48.620;9.828;2024-03-25T09:37:41;7.50;99.90
54409;DHT22;40315;48.620;9.828;2024-03-25T09:40:08;7.50;99.90
54409;DHT22;40315;48.620;9.828;2024-03-25T09:42:47;7.50;99.90
54409;DHT22;40315;48.620;9.828;2024-03-25T09:45:16;7.90;99.90
54409;DHT22;40315;48.620;9.828;2024-03-25T09:47:46;7.80;99.90
54409;DHT22;40315;48.620;9.828;2024-03-25T09:50:13;8.10;99.90
54409;DHT22;40315;48.620;9.828;2024-03-25T09:52:40;8.40;99.90
54409;DHT22;40315;48.620;9.828;2024-03-25T09:55:07;10.40;99.90
54409;DHT22;40315;48.620;9.828;2024-03-25T09:57:34;8.70;99.90
54409;DHT22;40315;48.620;9.828;2024-03-25T10:02:39;9.30;99.90
54409;DHT22;40315;48.620;9.828;2024-03-25T10:05:09;9.10;99.90
54409;DHT22;40315;48.620;9.828;2024-03-25T10:07:36;9.40;99.90
54409;DHT22;40315;48.620;9.828;2024-03-25T10:10:05;9.40;99.90
54409;DHT22;40315;48.620;9.828;2024-03-25T10:14:58;10.20;99.90
54409;DHT22;40315;48.620;9.828;2024-03-25T10:17:30;10.10;99.90
54409;DHT22;40315;48.620;9.828;2024-03-25T10:19:59;10.00;99.90
54409;DHT22;40315;48.620;9.828;2024-03-25T10:22:30;9.80;99.90
54409;DHT22;40315;48.620;9.828;2024-03-25T10:27:23;10.30;99.90
54409;DHT22;40315;48.620;9.828;2024-03-25T10:29:52;10.60;99.90
54409;DHT22;40315;48.620;9.828;2024-03-25T10:32:19;10.70;99.90
54409;DHT22;40315;48.620;9.828;2024-03-25T10:34:45;11.00;99.90
54409;DHT22;40315;48.620;9.828;2024-03-25T10:37:12;11.30;99.90
54409;DHT22;40315;48.620;9.828;2024-03-25T10:39:48;11.10;99.90
54409;DHT22;40315;48.620;9.828;2024-03-25T10:42:16;11.20;99.90
54409;DHT22;40315;48.620;9.828;2024-03-25T10:44:45;11.10;99.90
54409;DHT22;40315;48.620;9.828;2024-03-25T10:47:24;11.20;99.90
54409;DHT22;40315;48.620;9.828;2024-03-25T10:50:01;10.90;99.90
54409;DHT22;40315;48.620;9.828;2024-03-25T10:52:33;11.10;99.90
54409;DHT22;40315;48.620;9.828;2024-03-25T10:55:08;11.00;99.90
54409;DHT22;40315;48.620;9.828;2024-03-25T10:57:34;11.30;99.90
54409;DHT22;40315;48.620;9.828;2024-03-25T11:00:02;10.80;99.90
54409;DHT22;40315;48.620;9.828;2024-03-25T11:02:30;10.70;99.90
54409;DHT22;40315;48.620;9.828;2024-03-25T11:07:31;11.70;99.90
54409;DHT22;40315;48.620;9.828;2024-03-25T11:17:30;12.00;99.90
54409;DHT22;40315;48.620;9.828;2024-03-25T11:22:33;11.60;99.90
54409;DHT22;40315;48.620;9.828;2024-03-25T11:25:05;11.80;99.90
54409;DHT22;40315;48.620;9.828;2024-03-25T11:27:34;11.90;99.90
54409;DHT22;40315;48.620;9.828;2024-03-25T11:30:03;12.30;99.90
54409;DHT22;40315;48.620;9.828;2024-03-25T11:32:40;11.80;99.90
54409;DHT22;40315;48.620;9.828;2024-03-25T11:35:08;11.60;99.90
54409;DHT22;40315;48.620;9.828;2024-03-25T11:37:39;11.00;99.90
54409;DHT22;40315;48.620;9.828;2024-03-25T11:40:06;10.80;99.90
54409;DHT22;40315;48.620;9.828;2024-03-25T11:42:33;10.60;99.90
54409;DHT22;40315;48.620;9.828;2024-03-25T11:45:07;10.90;99.90
54409;DHT22;40315;48.620;9.828;2024-03-25T11:47:33;10.90;99.90
54409;DHT22;40315;48.620;9.828;2024-03-25T11:50:07;10.80;99.90
54409;DHT22;40315;48.620;9.828;2024-03-25T11:55:04;10.10;99.90
54409;DHT22;40315;48.620;9.828;2024-03-25T11:57:30;10.20;99.90
54409;DHT22;40315;48.620;9.828;2024-03-25T11:59:57;10.60;99.90
54409;DHT22;40315;48.620;9.828;2024-03-25T12:02:25;10.80;99.90
54409;DHT22;40315;48.620;9.828;2024-03-25T12:04:52;10.70;99.90
54409;DHT22;40315;48.620;9.828;2024-03-25T12:07:20;11.00;99.90
54409;DHT22;40315;48.620;9.828;2024-03-25T12:09:48;12.20;99.90
54409;DHT22;40315;48.620;9.828;2024-03-25T12:12:33;12.60;99.90
54409;DHT22;40315;48.620;9.828;2024-03-25T12:14:59;12.70;99.90
54409;DHT22;40315;48.620;9.828;2024-03-25T12:17:29;13.00;99.90
54409;DHT22;40315;48.620;9.828;2024-03-25T12:19:59;13.40;99.90
54409;DHT22;40315;48.620;9.828;2024-03-25T12:22:26;13.40;99.90
54409;DHT22;40315;48.620;9.828;2024-03-25T12:24:52;13.70;99.70
54409;DHT22;40315;48.620;9.828;2024-03-25T12:27:18;14.10;96.30
54409;DHT22;40315;48.620;9.828;2024-03-25T12:29:45;13.90;97.10
54409;DHT22;40315;48.620;9.828;2024-03-25T12:32:11;14.30;98.00
54409;DHT22;40315;48.620;9.828;2024-03-25T12:34:39;14.70;97.60
54409;DHT22;40315;48.620;9.828;2024-03-25T12:39:42;14.60;95.40
54409;DHT22;40315;48.620;9.828;2024-03-25T12:42:14;15.20;92.70
54409;DHT22;40315;48.620;9.828;2024-03-25T12:44:43;15.00;94.30
54409;DHT22;40315;48.620;9.828;2024-03-25T12:47:10;15.00;91.00
54409;DHT22;40315;48.620;9.828;2024-03-25T12:49:36;14.90;92.70
54409;DHT22;40315;48.620;9.828;2024-03-25T12:52:06;15.40;93.80
54409;DHT22;40315;48.620;9.828;2024-03-25T12:54:32;15.20;91.60
54409;DHT22;40315;48.620;9.828;2024-03-25T12:57:01;15.10;94.30
54409;DHT22;40315;48.620;9.828;2024-03-25T12:59:29;15.50;92.70
54409;DHT22;40315;48.620;9.828;2024-03-25T13:01:56;15.60;93.10
54409;DHT22;40315;48.620;9.828;2024-03-25T13:04:22;15.90;91.80
54409;DHT22;40315;48.620;9.828;2024-03-25T13:06:48;15.90;92.10
54409;DHT22;40315;48.620;9.828;2024-03-25T13:09:15;15.50;86.90
54409;DHT22;40315;48.620;9.828;2024-03-25T13:11:44;14.90;86.00
54409;DHT22;40315;48.620;9.828;2024-03-25T13:14:13;14.90;85.60
54409;DHT22;40315;48.620;9.828;2024-03-25T13:16:40;15.00;87.00
54409;DHT22;40315;48.620;9.828;2024-03-25T13:19:06;15.20;92.20
54409;DHT22;40315;48.620;9.828;2024-03-25T13:21:33;15.60;90.10
54409;DHT22;40315;48.620;9.828;2024-03-25T13:24:00;15.70;90.00
54409;DHT22;40315;48.620;9.828;2024-03-25T13:26:31;15.10;90.00
54409;DHT22;40315;48.620;9.828;2024-03-25T13:29:03;14.70;91.60
54409;DHT22;40315;48.620;9.828;2024-03-25T13:31:29;15.00;91.50
54409;DHT22;40315;48.620;9.828;2024-03-25T13:33:55;15.20;91.20
54409;DHT22;40315;48.620;9.828;2024-03-25T13:36:21;15.20;90.50
54409;DHT22;40315;48.620;9.828;2024-03-25T13:38:47;14.80;91.00
54409;DHT22;40315;48.620;9.828;2024-03-25T13:41:16;14.70;88.80
54409;DHT22;40315;48.620;9.828;2024-03-25T13:43:49;14.90;84.70
54409;DHT22;40315;48.620;9.828;2024-03-25T13:46:15;15.00;85.00
54409;DHT22;40315;48.620;9.828;2024-03-25T13:48:43;15.10;82.00
54409;DHT22;40315;48.620;9.828;2024-03-25T13:51:10;15.50;82.90
54409;DHT22;40315;48.620;9.828;2024-03-25T13:53:39;15.70;80.20
54409;DHT22;40315;48.620;9.828;2024-03-25T13:56:07;15.30;78.20
54409;DHT22;40315;48.620;9.828;2024-03-25T13:58:36;15.20;78.30
54409;DHT22;40315;48.620;9.828;2024-03-25T14:01:04;14.90;78.70
54409;DHT22;40315;48.620;9.828;2024-03-25T14:05:59;14.30;82.10
54409;DHT22;40315;48.620;9.828;2024-03-25T14:08:25;14.20;82.00
54409;DHT22;40315;48.620;9.828;2024-03-25T14:10:57;14.30;82.00
54409;DHT22;40315;48.620;9.828;2024-03-25T14:13:29;14.60;83.00
54409;DHT22;40315;48.620;9.828;2024-03-25T14:16:16;14.00;81.90
54409;DHT22;40315;48.620;9.828;2024-03-25T14:18:44;13.90;82.30
54409;DHT22;40315;48.620;9.828;2024-03-25T14:21:10;13.70;83.10
54409;DHT22;40315;48.620;9.828;2024-03-25T14:23:44;13.70;84.30
54409;DHT22;40315;48.620;9.828;2024-03-25T14:28:43;13.80;82.90
54409;DHT22;40315;48.620;9.828;2024-03-25T14:31:09;13.70;83.30
54409;DHT22;40315;48.620;9.828;2024-03-25T14:33:39;13.80;82.60
54409;DHT22;40315;48.620;9.828;2024-03-25T14:36:05;13.90;80.30
54409;DHT22;40315;48.620;9.828;2024-03-25T14:38:34;14.00;82.50
54409;DHT22;40315;48.620;9.828;2024-03-25T14:41:02;14.20;79.20
54409;DHT22;40315;48.620;9.828;2024-03-25T14:43:28;13.70;74.30
54409;DHT22;40315;48.620;9.828;2024-03-25T14:45:56;13.10;78.70
54409;DHT22;40315;48.620;9.828;2024-03-25T14:50:53;12.80;79.20
54409;DHT22;40315;48.620;9.828;2024-03-25T14:53:19;13.00;81.50
54409;DHT22;40315;48.620;9.828;2024-03-25T14:55:45;13.10;80.50
54409;DHT22;40315;48.620;9.828;2024-03-25T14:58:14;13.20;82.20
54409;DHT22;40315;48.620;9.828;2024-03-25T15:00:40;13.10;79.80
54409;DHT22;40315;48.620;9.828;2024-03-25T15:03:11;13.10;79.90
54409;DHT22;40315;48.620;9.828;2024-03-25T15:05:37;13.40;78.50
54409;DHT22;40315;48.620;9.828;2024-03-25T15:08:07;13.30;78.50
54409;DHT22;40315;48.620;9.828;2024-03-25T15:10:33;13.20;77.10
54409;DHT22;40315;48.620;9.828;2024-03-25T15:13:02;13.10;76.20
54409;DHT22;40315;48.620;9.828;2024-03-25T15:15:31;13.20;77.40
54409;DHT22;40315;48.620;9.828;2024-03-25T15:17:57;13.10;78.70
54409;DHT22;40315;48.620;9.828;2024-03-25T15:20:23;13.10;80.90
54409;DHT22;40315;48.620;9.828;2024-03-25T15:22:51;13.00;80.40
54409;DHT22;40315;48.620;9.828;2024-03-25T15:25:19;12.70;80.70
54409;DHT22;40315;48.620;9.828;2024-03-25T15:27:45;12.70;82.10
54409;DHT22;40315;48.620;9.828;2024-03-25T15:30:14;12.70;82.50
54409;DHT22;40315;48.620;9.828;2024-03-25T15:32:40;12.70;81.90
54409;DHT22;40315;48.620;9.828;2024-03-25T15:35:10;12.70;80.80
54409;DHT22;40315;48.620;9.828;2024-03-25T15:37:38;13.10;81.60
54409;DHT22;40315;48.620;9.828;2024-03-25T15:40:06;12.80;80.80
54409;DHT22;40315;48.620;9.828;2024-03-25T15:42:34;12.80;81.60
54409;DHT22;40315;48.620;9.828;2024-03-25T15:45:01;13.00;82.50
54409;DHT22;40315;48.620;9.828;2024-03-25T15:47:27;13.00;82.50
54409;DHT22;40315;48.620;9.828;2024-03-25T15:49:55;12.80;81.20
54409;DHT22;40315;48.620;9.828;2024-03-25T15:52:22;12.80;81.50
54409;DHT22;40315;48.620;9.828;2024-03-25T15:54:48;12.60;84.70
54409;DHT22;40315;48.620;9.828;2024-03-25T15:57:19;12.20;83.60
54409;DHT22;40315;48.620;9.828;2024-03-25T15:59:50;12.20;83.80
54409;DHT22;40315;48.620;9.828;2024-03-25T16:02:16;12.20;84.80
54409;DHT22;40315;48.620;9.828;2024-03-25T16:04:42;12.10;82.90
54409;DHT22;40315;48.620;9.828;2024-03-25T16:07:08;12.10;84.90
54409;DHT22;40315;48.620;9.828;2024-03-25T16:09:34;12.10;84.10
54409;DHT22;40315;48.620;9.828;2024-03-25T16:12:03;12.00;83.30
54409;DHT22;40315;48.620;9.828;2024-03-25T16:14:32;11.70;85.40
54409;DHT22;40315;48.620;9.828;2024-03-25T16:17:01;11.60;86.50
54409;DHT22;40315;48.620;9.828;2024-03-25T16:19:32;11.60;86.00
54409;DHT22;40315;48.620;9.828;2024-03-25T16:21:58;11.70;87.20
54409;DHT22;40315;48.620;9.828;2024-03-25T16:24:27;11.70;86.90
54409;DHT22;40315;48.620;9.828;2024-03-25T16:26:53;11.70;86.90
54409;DHT22;40315;48.620;9.828;2024-03-25T16:29:21;11.40;88.20
54409;DHT22;40315;48.620;9.828;2024-03-25T16:31:48;11.20;87.80
54409;DHT22;40315;48.620;9.828;2024-03-25T16:34:16;11.00;90.00
54409;DHT22;40315;48.620;9.828;2024-03-25T16:39:08;10.80;89.50
54409;DHT22;40315;48.620;9.828;2024-03-25T16:41:37;10.80;90.00
54409;DHT22;40315;48.620;9.828;2024-03-25T16:44:03;10.70;90.40
54409;DHT22;40315;48.620;9.828;2024-03-25T16:46:29;10.70;90.60
54409;DHT22;40315;48.620;9.828;2024-03-25T16:48:57;10.50;90.50
54409;DHT22;40315;48.620;9.828;2024-03-25T16:51:27;10.40;90.50
54409;DHT22;40315;48.620;9.828;2024-03-25T16:53:56;10.50;90.60
54409;DHT22;40315;48.620;9.828;2024-03-25T16:58:48;10.40;91.00